Cincinnati, OH

3:32 AM EST on February 08, 2016 (GMT -0500)
Mt Adams | | Change Station
CLOSE
Current Station
Personal Weather Station
Location: Cincinnati, OH
Elevation: 797 ft
Nearby Weather Stations

Elev 797 ft 39.11 °N, 84.50 °W | Updated 17 seconds ago

Rain
Rain
41.0 °F
Feels Like 41 °F
N
2.7
Wind Variable Wind from South
Gusts 3.7 mph

Today
High -- | Low -- °F
--% Chance of Precip.
Yesterday
High -- | Low -- °F
Precip. -- in
Pressure 29.73 in
Visibility 10.0 miles
Clouds Scattered Clouds 3200 ft
Overcast 4100 ft
Windchill 41 °F
Dew Point 36 °F
Humidity 82%
Rainfall 0.00 in
Snow Depth Not available.
7:38 AM 6:06 PM
Waning Crescent, 0% visible
METAR KLUK 080753Z AUTO 35006KT 10SM -RA SCT032 OVC041 06/01 A2973 RMK AO2 RAB21 SLP068 P0000 T00610006
Pressure 29.73 in
Visibility 10.0 miles
Clouds Scattered Clouds 3200 ft
Overcast 4100 ft
Windchill 41 °F
Dew Point 36 °F
Humidity 82%
Rainfall 0.00 in
Snow Depth Not available.
7:38 AM 6:06 PM
Waning Crescent, 0% visible
METAR KLUK 080753Z AUTO 35006KT 10SM -RA SCT032 OVC041 06/01 A2973 RMK AO2 RAB21 SLP068 P0000 T00610006

10-Day Weather Forecast

Almanac

Astronomy

Feb. 08, 2016 Rise Set
Actual Time
Civil Twilight
Nautical Twilight
Astronomical Twilight
Moon
Length of Visible Light
Length of Day
Tomorrow will be .
, % of the Moon is Illuminated

Today's Extremes

State Highs State Lows

Community

WunderPhotos

Upload Photos

1,891,412 photos uploaded!

WunderBlog® & News

Nearby

Air Quality

  Air Quality AQ Index Pollutant
Not available.

Snow Depth

Station Depth Elevation

Earthquake Activity

City Distance Mag. Time & Date
Minimum magnitude displayed is 2.5.

Coastal Water Temperatures

Place Temperature

Stations

Nearby Weather Stations

Station Location Temp. Windchill Dew Point Humidity Wind Precip. Elev Updated Type
                   

Watches & Warnings

There are currently no watches in effect.